Spencertown, NY (12165)

8:39 PM EST on November 24, 2014 (GMT -0500)
chatham | Change Station
CLOSE
Current Station
Personal Weather Station
Location: Spencertown, NY
Elevation: 1017 ft
Nearby Weather Stations
Active Advisory: Winter Storm Watch

Elev 1017 ft 42.32 °N, 73.52 °W | Updated 3 minutes ago

Mostly Cloudy
Mostly Cloudy
61.0 °F
Feels Like 61.0 °F
N
13.0
Wind Variable Wind from WSW
Gusts 0.0 mph

Today
High -- | Low -- °F
--% Chance of Precip.
Yesterday
High -- | Low -- °F
Precip. -- in
6:55 AM 4:25 PM
Waxing Crescent, 8% visible
Pressure 29.58 in
Visibility 10.0 miles
Clouds Overcast 2900 ft
Dew Point 56 °F
Humidity 82%
Rainfall 0.51 in
Snow Depth Not available.
UV 0 out of 12
Pollen .10 out of 12
Air Quality Not available.
Flu Activity Not available.
METAR KPSF 250054Z AUTO 20008G20KT 160V230 10SM OVC029 16/12 A2962 RMK AO2 SLP015 T01610117

More Conditions Fewer Conditions

Pressure 29.58 in
Visibility 10.0 miles
Clouds Overcast 2900 ft
Dew Point 56 °F
Humidity 82%
Rainfall 0.51 in
Snow Depth Not available.
UV 0 out of 12
Pollen .10 out of 12
Air Quality Not available.
Flu Activity Not available.
METAR KPSF 250054Z AUTO 20008G20KT 160V230 10SM OVC029 16/12 A2962 RMK AO2 SLP015 T01610117

More Conditions Fewer Conditions

10-Day Weather Forecast

Almanac

Astronomy

Nov. 24, 2014 Rise Set
Actual Time
Civil Twilight
Nautical Twilight
Astronomical Twilight
Moon
Length of Visible Light
Length of Day
Tomorrow will be .
, % of the Moon is Illuminated

Today's Extremes

State Highs State Lows

Community

WunderPhotos

Upload Photos

1,773,457 photos uploaded!

WunderBlogs® & News

Nearby

Air Quality

  Air Quality AQ Index Pollutant
Not available.

Snow Depth

Station Depth Elevation

Earthquake Activity

City Distance Mag. Time & Date
Minimum magnitude displayed is 2.5.

Coastal Water Temperatures

Place Temperature

Nearby Weather Stations